sensor_id;sensor_type;location;lat;lon;timestamp;temperature;humidity
573;DHT22;271;51.114;13.780;2023-05-09T00:00:50;9.00;1.00
573;DHT22;271;51.114;13.780;2023-05-09T00:03:38;9.00;1.00
573;DHT22;271;51.114;13.780;2023-05-09T00:06:27;9.00;1.00
573;DHT22;271;51.114;13.780;2023-05-09T00:09:16;9.10;1.00
573;DHT22;271;51.114;13.780;2023-05-09T00:12:04;9.00;1.00
573;DHT22;271;51.114;13.780;2023-05-09T00:14:53;8.90;1.00
573;DHT22;271;51.114;13.780;2023-05-09T00:17:42;9.00;1.00
573;DHT22;271;51.114;13.780;2023-05-09T00:20:31;9.00;1.00
573;DHT22;271;51.114;13.780;2023-05-09T00:23:19;9.00;1.00
573;DHT22;271;51.114;13.780;2023-05-09T00:26:09;9.00;1.00
573;DHT22;271;51.114;13.780;2023-05-09T00:28:56;9.00;1.00
573;DHT22;271;51.114;13.780;2023-05-09T00:31:44;9.10;1.00
573;DHT22;271;51.114;13.780;2023-05-09T00:34:32;8.90;1.00
573;DHT22;271;51.114;13.780;2023-05-09T00:37:19;9.00;1.00
573;DHT22;271;51.114;13.780;2023-05-09T00:40:08;9.00;1.00
573;DHT22;271;51.114;13.780;2023-05-09T00:42:57;9.10;1.00
573;DHT22;271;51.114;13.780;2023-05-09T00:45:46;9.00;1.00
573;DHT22;271;51.114;13.780;2023-05-09T00:48:34;9.10;1.00
573;DHT22;271;51.114;13.780;2023-05-09T00:51:22;9.10;1.00
573;DHT22;271;51.114;13.780;2023-05-09T00:54:10;9.10;1.00
573;DHT22;271;51.114;13.780;2023-05-09T00:56:58;9.10;1.00
573;DHT22;271;51.114;13.780;2023-05-09T00:59:47;9.10;1.00
573;DHT22;271;51.114;13.780;2023-05-09T01:02:35;9.10;1.00
573;DHT22;271;51.114;13.780;2023-05-09T01:05:34;9.10;1.00
573;DHT22;271;51.114;13.780;2023-05-09T01:08:36;9.10;1.00
573;DHT22;271;51.114;13.780;2023-05-09T01:11:30;9.10;1.00
573;DHT22;271;51.114;13.780;2023-05-09T01:14:27;9.00;1.00
573;DHT22;271;51.114;13.780;2023-05-09T01:17:26;9.10;1.00
573;DHT22;271;51.114;13.780;2023-05-09T01:20:21;8.90;1.00
573;DHT22;271;51.114;13.780;2023-05-09T01:23:48;9.00;1.00
573;DHT22;271;51.114;13.780;2023-05-09T01:26:43;9.00;1.00
573;DHT22;271;51.114;13.780;2023-05-09T01:29:41;9.00;1.00
573;DHT22;271;51.114;13.780;2023-05-09T01:32:31;9.00;1.00
573;DHT22;271;51.114;13.780;2023-05-09T01:35:24;9.00;1.00
573;DHT22;271;51.114;13.780;2023-05-09T01:38:16;9.00;1.00
573;DHT22;271;51.114;13.780;2023-05-09T01:41:05;8.90;1.00
573;DHT22;271;51.114;13.780;2023-05-09T01:43:55;8.90;1.00
573;DHT22;271;51.114;13.780;2023-05-09T01:46:47;8.90;1.00
573;DHT22;271;51.114;13.780;2023-05-09T01:49:36;8.80;1.00
573;DHT22;271;51.114;13.780;2023-05-09T01:52:25;8.80;1.00
573;DHT22;271;51.114;13.780;2023-05-09T01:55:13;8.80;1.00
573;DHT22;271;51.114;13.780;2023-05-09T01:58:02;8.80;1.00
573;DHT22;271;51.114;13.780;2023-05-09T02:00:51;8.80;1.00
573;DHT22;271;51.114;13.780;2023-05-09T02:03:42;8.80;1.00
573;DHT22;271;51.114;13.780;2023-05-09T02:06:31;8.80;1.00
573;DHT22;271;51.114;13.780;2023-05-09T02:09:19;8.60;1.00
573;DHT22;271;51.114;13.780;2023-05-09T02:12:07;8.70;1.00
573;DHT22;271;51.114;13.780;2023-05-09T02:14:55;8.70;1.00
573;DHT22;271;51.114;13.780;2023-05-09T02:17:43;8.70;1.00
573;DHT22;271;51.114;13.780;2023-05-09T02:20:32;8.60;1.00
573;DHT22;271;51.114;13.780;2023-05-09T02:23:21;8.60;1.00
573;DHT22;271;51.114;13.780;2023-05-09T02:26:08;8.60;1.00
573;DHT22;271;51.114;13.780;2023-05-09T02:28:57;8.50;1.00
573;DHT22;271;51.114;13.780;2023-05-09T02:31:46;8.50;1.00
573;DHT22;271;51.114;13.780;2023-05-09T02:34:36;8.50;1.00
573;DHT22;271;51.114;13.780;2023-05-09T02:37:26;8.50;1.00
573;DHT22;271;51.114;13.780;2023-05-09T02:40:14;8.50;1.00
573;DHT22;271;51.114;13.780;2023-05-09T02:43:02;8.50;1.00
573;DHT22;271;51.114;13.780;2023-05-09T02:45:50;8.40;1.00
573;DHT22;271;51.114;13.780;2023-05-09T02:48:38;8.40;1.00
573;DHT22;271;51.114;13.780;2023-05-09T02:51:25;8.30;1.00
573;DHT22;271;51.114;13.780;2023-05-09T02:54:14;8.40;1.00
573;DHT22;271;51.114;13.780;2023-05-09T02:57:03;8.40;1.00
573;DHT22;271;51.114;13.780;2023-05-09T02:59:51;8.30;1.00
573;DHT22;271;51.114;13.780;2023-05-09T03:02:38;8.30;1.00
573;DHT22;271;51.114;13.780;2023-05-09T03:05:26;8.30;1.00
573;DHT22;271;51.114;13.780;2023-05-09T03:08:14;8.30;1.00
573;DHT22;271;51.114;13.780;2023-05-09T03:11:03;8.10;1.00
573;DHT22;271;51.114;13.780;2023-05-09T03:13:53;8.10;1.00
573;DHT22;271;51.114;13.780;2023-05-09T03:16:40;8.10;1.00
573;DHT22;271;51.114;13.780;2023-05-09T03:19:28;8.10;1.00
573;DHT22;271;51.114;13.780;2023-05-09T03:22:16;8.20;1.00
573;DHT22;271;51.114;13.780;2023-05-09T03:25:04;8.10;1.00
573;DHT22;271;51.114;13.780;2023-05-09T03:27:53;8.10;1.00
573;DHT22;271;51.114;13.780;2023-05-09T03:30:41;8.20;1.00
573;DHT22;271;51.114;13.780;2023-05-09T03:33:29;8.10;1.00
573;DHT22;271;51.114;13.780;2023-05-09T03:36:17;8.00;1.00
573;DHT22;271;51.114;13.780;2023-05-09T03:39:04;8.10;1.00
573;DHT22;271;51.114;13.780;2023-05-09T03:41:53;8.10;1.00
573;DHT22;271;51.114;13.780;2023-05-09T03:44:42;8.10;1.00
573;DHT22;271;51.114;13.780;2023-05-09T03:47:30;8.10;1.00
573;DHT22;271;51.114;13.780;2023-05-09T03:50:18;8.10;1.00
573;DHT22;271;51.114;13.780;2023-05-09T03:53:05;8.10;1.00
573;DHT22;271;51.114;13.780;2023-05-09T03:55:53;8.10;1.00
573;DHT22;271;51.114;13.780;2023-05-09T03:58:41;8.10;1.00
573;DHT22;271;51.114;13.780;2023-05-09T04:01:30;8.20;1.00
573;DHT22;271;51.114;13.780;2023-05-09T04:04:18;8.10;1.00
573;DHT22;271;51.114;13.780;2023-05-09T04:07:06;8.10;1.00
573;DHT22;271;51.114;13.780;2023-05-09T04:09:54;8.20;1.00
573;DHT22;271;51.114;13.780;2023-05-09T04:12:42;8.30;1.00
573;DHT22;271;51.114;13.780;2023-05-09T04:15:29;8.40;1.00
573;DHT22;271;51.114;13.780;2023-05-09T04:18:18;8.40;1.00
573;DHT22;271;51.114;13.780;2023-05-09T04:21:06;8.50;1.00
573;DHT22;271;51.114;13.780;2023-05-09T04:23:54;8.60;1.00
573;DHT22;271;51.114;13.780;2023-05-09T04:26:42;8.60;1.00
573;DHT22;271;51.114;13.780;2023-05-09T04:29:29;8.80;1.00
573;DHT22;271;51.114;13.780;2023-05-09T04:32:17;8.80;1.00
573;DHT22;271;51.114;13.780;2023-05-09T04:35:08;8.80;1.00
573;DHT22;271;51.114;13.780;2023-05-09T04:37:56;9.00;1.00
573;DHT22;271;51.114;13.780;2023-05-09T04:40:43;9.10;1.00
573;DHT22;271;51.114;13.780;2023-05-09T04:43:31;9.10;1.00
573;DHT22;271;51.114;13.780;2023-05-09T04:46:19;9.30;1.00
573;DHT22;271;51.114;13.780;2023-05-09T04:49:07;9.50;1.00
573;DHT22;271;51.114;13.780;2023-05-09T04:51:56;9.60;1.00
573;DHT22;271;51.114;13.780;2023-05-09T04:54:44;9.70;1.00
573;DHT22;271;51.114;13.780;2023-05-09T04:57:32;9.70;1.00
573;DHT22;271;51.114;13.780;2023-05-09T05:00:20;9.90;1.00
573;DHT22;271;51.114;13.780;2023-05-09T05:03:08;10.10;1.00
573;DHT22;271;51.114;13.780;2023-05-09T05:05:56;10.30;1.00
573;DHT22;271;51.114;13.780;2023-05-09T05:08:45;10.50;1.00
573;DHT22;271;51.114;13.780;2023-05-09T05:11:33;10.50;1.00
573;DHT22;271;51.114;13.780;2023-05-09T05:14:21;10.70;1.00
573;DHT22;271;51.114;13.780;2023-05-09T05:17:08;11.10;1.00
573;DHT22;271;51.114;13.780;2023-05-09T05:19:56;11.50;1.00
573;DHT22;271;51.114;13.780;2023-05-09T05:22:44;11.80;1.00
573;DHT22;271;51.114;13.780;2023-05-09T05:25:33;11.90;1.00
573;DHT22;271;51.114;13.780;2023-05-09T05:28:21;12.30;1.00
573;DHT22;271;51.114;13.780;2023-05-09T05:31:08;12.90;1.00
573;DHT22;271;51.114;13.780;2023-05-09T05:33:56;13.30;1.00
573;DHT22;271;51.114;13.780;2023-05-09T05:36:44;13.90;1.00
573;DHT22;271;51.114;13.780;2023-05-09T05:39:33;13.90;1.00
573;DHT22;271;51.114;13.780;2023-05-09T05:42:22;14.40;1.00
573;DHT22;271;51.114;13.780;2023-05-09T05:45:10;14.80;1.00
573;DHT22;271;51.114;13.780;2023-05-09T05:47:58;14.80;1.00
573;DHT22;271;51.114;13.780;2023-05-09T05:50:47;15.40;1.00
573;DHT22;271;51.114;13.780;2023-05-09T05:53:35;15.80;1.00
573;DHT22;271;51.114;13.780;2023-05-09T05:56:23;16.60;1.00
573;DHT22;271;51.114;13.780;2023-05-09T05:59:12;17.30;1.00
573;DHT22;271;51.114;13.780;2023-05-09T06:02:00;18.00;1.00
573;DHT22;271;51.114;13.780;2023-05-09T06:04:48;18.00;1.00
573;DHT22;271;51.114;13.780;2023-05-09T06:07:36;17.70;1.00
573;DHT22;271;51.114;13.780;2023-05-09T06:10:25;17.80;1.00
573;DHT22;271;51.114;13.780;2023-05-09T06:13:13;18.10;1.00
573;DHT22;271;51.114;13.780;2023-05-09T06:16:02;18.60;1.00
573;DHT22;271;51.114;13.780;2023-05-09T06:18:50;19.40;1.00
573;DHT22;271;51.114;13.780;2023-05-09T06:21:38;19.00;1.00
573;DHT22;271;51.114;13.780;2023-05-09T06:24:25;18.00;1.00
573;DHT22;271;51.114;13.780;2023-05-09T06:27:13;18.10;1.00
573;DHT22;271;51.114;13.780;2023-05-09T06:30:01;17.60;1.00
573;DHT22;271;51.114;13.780;2023-05-09T06:32:50;17.10;1.00
573;DHT22;271;51.114;13.780;2023-05-09T06:35:38;17.70;1.00
573;DHT22;271;51.114;13.780;2023-05-09T06:38:25;18.20;1.00
573;DHT22;271;51.114;13.780;2023-05-09T06:41:13;18.20;1.00
573;DHT22;271;51.114;13.780;2023-05-09T06:44:02;17.50;1.00
573;DHT22;271;51.114;13.780;2023-05-09T06:46:50;17.60;1.00
573;DHT22;271;51.114;13.780;2023-05-09T06:49:39;17.70;1.00
573;DHT22;271;51.114;13.780;2023-05-09T06:52:26;17.80;1.00
573;DHT22;271;51.114;13.780;2023-05-09T06:55:15;17.70;1.00
573;DHT22;271;51.114;13.780;2023-05-09T06:58:03;18.30;1.00
573;DHT22;271;51.114;13.780;2023-05-09T07:00:50;18.60;1.00
573;DHT22;271;51.114;13.780;2023-05-09T07:03:38;17.90;1.00
573;DHT22;271;51.114;13.780;2023-05-09T07:06:27;18.70;1.00
573;DHT22;271;51.114;13.780;2023-05-09T07:09:15;19.60;1.00
573;DHT22;271;51.114;13.780;2023-05-09T07:12:06;19.30;1.00
573;DHT22;271;51.114;13.780;2023-05-09T07:14:53;20.60;1.00
573;DHT22;271;51.114;13.780;2023-05-09T07:17:41;21.10;1.00
573;DHT22;271;51.114;13.780;2023-05-09T07:20:29;20.80;1.00
573;DHT22;271;51.114;13.780;2023-05-09T07:23:18;21.40;1.00
573;DHT22;271;51.114;13.780;2023-05-09T07:26:06;20.00;1.00
573;DHT22;271;51.114;13.780;2023-05-09T07:28:54;19.20;1.00
573;DHT22;271;51.114;13.780;2023-05-09T07:31:41;20.20;1.00
573;DHT22;271;51.114;13.780;2023-05-09T07:34:29;20.80;1.00
573;DHT22;271;51.114;13.780;2023-05-09T07:37:17;20.50;1.00
573;DHT22;271;51.114;13.780;2023-05-09T07:40:08;21.10;1.00
573;DHT22;271;51.114;13.780;2023-05-09T07:42:55;20.30;1.00
573;DHT22;271;51.114;13.780;2023-05-09T07:45:44;20.30;1.00
573;DHT22;271;51.114;13.780;2023-05-09T07:48:32;19.80;1.00
573;DHT22;271;51.114;13.780;2023-05-09T07:51:19;20.10;1.00
573;DHT22;271;51.114;13.780;2023-05-09T07:54:07;19.90;1.00
573;DHT22;271;51.114;13.780;2023-05-09T07:56:58;20.10;1.00
573;DHT22;271;51.114;13.780;2023-05-09T07:59:45;20.40;1.00
573;DHT22;271;51.114;13.780;2023-05-09T08:02:33;21.70;1.00
573;DHT22;271;51.114;13.780;2023-05-09T08:05:21;21.10;1.00
573;DHT22;271;51.114;13.780;2023-05-09T08:08:08;20.60;1.00
573;DHT22;271;51.114;13.780;2023-05-09T08:10:56;20.80;1.00
573;DHT22;271;51.114;13.780;2023-05-09T08:13:45;20.70;1.00
573;DHT22;271;51.114;13.780;2023-05-09T08:16:34;21.00;1.00
573;DHT22;271;51.114;13.780;2023-05-09T08:19:21;21.30;1.00
573;DHT22;271;51.114;13.780;2023-05-09T08:22:15;20.50;1.00
573;DHT22;271;51.114;13.780;2023-05-09T08:25:04;20.20;1.00
573;DHT22;271;51.114;13.780;2023-05-09T08:27:52;20.70;1.00
573;DHT22;271;51.114;13.780;2023-05-09T08:30:41;21.70;1.00
573;DHT22;271;51.114;13.780;2023-05-09T08:33:28;22.20;1.00
573;DHT22;271;51.114;13.780;2023-05-09T08:36:16;21.50;1.00
573;DHT22;271;51.114;13.780;2023-05-09T08:39:04;20.20;1.00
573;DHT22;271;51.114;13.780;2023-05-09T08:41:52;19.40;1.00
573;DHT22;271;51.114;13.780;2023-05-09T08:44:44;20.00;1.00
573;DHT22;271;51.114;13.780;2023-05-09T08:47:35;20.90;1.00
573;DHT22;271;51.114;13.780;2023-05-09T08:50:24;20.10;1.00
573;DHT22;271;51.114;13.780;2023-05-09T08:53:11;19.60;1.00
573;DHT22;271;51.114;13.780;2023-05-09T08:56:01;19.30;1.00
573;DHT22;271;51.114;13.780;2023-05-09T08:58:49;19.50;1.00
573;DHT22;271;51.114;13.780;2023-05-09T09:01:37;19.40;1.00
573;DHT22;271;51.114;13.780;2023-05-09T09:04:26;19.20;1.00
573;DHT22;271;51.114;13.780;2023-05-09T09:07:14;19.20;1.00
573;DHT22;271;51.114;13.780;2023-05-09T09:10:02;19.00;1.00
573;DHT22;271;51.114;13.780;2023-05-09T09:12:51;18.50;1.00
573;DHT22;271;51.114;13.780;2023-05-09T09:15:40;18.70;1.00
573;DHT22;271;51.114;13.780;2023-05-09T09:18:29;19.20;1.00
573;DHT22;271;51.114;13.780;2023-05-09T09:21:21;19.10;1.00
573;DHT22;271;51.114;13.780;2023-05-09T09:24:11;19.20;1.00
573;DHT22;271;51.114;13.780;2023-05-09T09:27:04;18.60;1.00
573;DHT22;271;51.114;13.780;2023-05-09T09:29:52;18.20;1.00
573;DHT22;271;51.114;13.780;2023-05-09T09:32:39;18.40;1.00
573;DHT22;271;51.114;13.780;2023-05-09T09:35:27;18.60;1.00
573;DHT22;271;51.114;13.780;2023-05-09T09:38:17;19.00;1.00
573;DHT22;271;51.114;13.780;2023-05-09T09:41:06;19.20;1.00
573;DHT22;271;51.114;13.780;2023-05-09T09:43:55;19.20;1.00
573;DHT22;271;51.114;13.780;2023-05-09T09:46:44;19.50;1.00
573;DHT22;271;51.114;13.780;2023-05-09T09:49:32;19.30;1.00
573;DHT22;271;51.114;13.780;2023-05-09T09:52:22;19.70;1.00
573;DHT22;271;51.114;13.780;2023-05-09T09:55:12;19.90;1.00
573;DHT22;271;51.114;13.780;2023-05-09T09:58:00;19.90;1.00
573;DHT22;271;51.114;13.780;2023-05-09T10:01:03;19.30;1.00
573;DHT22;271;51.114;13.780;2023-05-09T10:03:52;19.00;1.00
573;DHT22;271;51.114;13.780;2023-05-09T10:06:51;19.50;1.00
573;DHT22;271;51.114;13.780;2023-05-09T10:09:39;19.90;1.00
573;DHT22;271;51.114;13.780;2023-05-09T10:12:31;20.00;1.00
573;DHT22;271;51.114;13.780;2023-05-09T10:15:21;19.80;1.00
573;DHT22;271;51.114;13.780;2023-05-09T10:18:09;19.70;1.00
573;DHT22;271;51.114;13.780;2023-05-09T10:20:59;19.80;1.00
573;DHT22;271;51.114;13.780;2023-05-09T10:23:50;19.80;1.00
573;DHT22;271;51.114;13.780;2023-05-09T10:26:40;20.10;1.00
573;DHT22;271;51.114;13.780;2023-05-09T10:29:35;20.50;1.00
573;DHT22;271;51.114;13.780;2023-05-09T10:32:29;20.40;1.00
573;DHT22;271;51.114;13.780;2023-05-09T10:35:19;20.20;1.00
573;DHT22;271;51.114;13.780;2023-05-09T10:38:09;20.00;1.00
573;DHT22;271;51.114;13.780;2023-05-09T10:40:58;19.80;1.00
573;DHT22;271;51.114;13.780;2023-05-09T10:43:47;19.70;1.00
573;DHT22;271;51.114;13.780;2023-05-09T10:46:36;20.00;1.00
573;DHT22;271;51.114;13.780;2023-05-09T10:49:24;20.20;1.00
573;DHT22;271;51.114;13.780;2023-05-09T10:52:13;20.10;1.00
573;DHT22;271;51.114;13.780;2023-05-09T10:55:04;20.30;1.00
573;DHT22;271;51.114;13.780;2023-05-09T10:57:52;20.40;1.00
573;DHT22;271;51.114;13.780;2023-05-09T11:00:40;20.60;1.00
573;DHT22;271;51.114;13.780;2023-05-09T11:03:52;20.90;1.00
573;DHT22;271;51.114;13.780;2023-05-09T11:06:45;20.70;1.00
573;DHT22;271;51.114;13.780;2023-05-09T11:09:35;20.60;1.00
573;DHT22;271;51.114;13.780;2023-05-09T11:12:24;20.50;1.00
573;DHT22;271;51.114;13.780;2023-05-09T11:15:11;20.10;1.00
573;DHT22;271;51.114;13.780;2023-05-09T11:18:06;19.70;1.00
573;DHT22;271;51.114;13.780;2023-05-09T11:20:57;19.60;1.00
573;DHT22;271;51.114;13.780;2023-05-09T11:23:45;19.50;1.00
573;DHT22;271;51.114;13.780;2023-05-09T11:26:33;19.70;1.00
573;DHT22;271;51.114;13.780;2023-05-09T11:29:25;19.60;1.00
573;DHT22;271;51.114;13.780;2023-05-09T11:32:13;19.40;1.00
573;DHT22;271;51.114;13.780;2023-05-09T11:35:05;18.80;1.00
573;DHT22;271;51.114;13.780;2023-05-09T11:38:01;18.60;1.00
573;DHT22;271;51.114;13.780;2023-05-09T11:40:50;18.90;1.00
573;DHT22;271;51.114;13.780;2023-05-09T11:43:41;19.20;1.00
573;DHT22;271;51.114;13.780;2023-05-09T11:46:30;19.00;1.00
573;DHT22;271;51.114;13.780;2023-05-09T11:49:18;18.70;1.00
573;DHT22;271;51.114;13.780;2023-05-09T11:52:05;18.90;1.00
573;DHT22;271;51.114;13.780;2023-05-09T11:54:55;19.00;1.00
573;DHT22;271;51.114;13.780;2023-05-09T11:57:45;18.70;1.00
573;DHT22;271;51.114;13.780;2023-05-09T12:00:34;18.70;1.00
573;DHT22;271;51.114;13.780;2023-05-09T12:03:22;18.50;1.00
573;DHT22;271;51.114;13.780;2023-05-09T12:06:14;18.30;1.00
573;DHT22;271;51.114;13.780;2023-05-09T12:09:02;18.40;1.00
573;DHT22;271;51.114;13.780;2023-05-09T12:11:51;18.30;1.00
573;DHT22;271;51.114;13.780;2023-05-09T12:14:40;18.20;1.00
573;DHT22;271;51.114;13.780;2023-05-09T12:17:31;18.50;1.00
573;DHT22;271;51.114;13.780;2023-05-09T12:20:20;18.70;1.00
573;DHT22;271;51.114;13.780;2023-05-09T12:23:09;18.50;1.00
573;DHT22;271;51.114;13.780;2023-05-09T12:25:58;18.60;1.00
573;DHT22;271;51.114;13.780;2023-05-09T12:28:49;18.60;1.00
573;DHT22;271;51.114;13.780;2023-05-09T12:31:37;18.70;1.00
573;DHT22;271;51.114;13.780;2023-05-09T12:34:25;18.50;1.00
573;DHT22;271;51.114;13.780;2023-05-09T12:37:13;18.40;1.00
573;DHT22;271;51.114;13.780;2023-05-09T12:40:03;18.50;1.00
573;DHT22;271;51.114;13.780;2023-05-09T12:42:51;18.50;1.00
573;DHT22;271;51.114;13.780;2023-05-09T12:45:51;18.60;1.00
573;DHT22;271;51.114;13.780;2023-05-09T12:48:40;18.50;1.00
573;DHT22;271;51.114;13.780;2023-05-09T12:51:29;18.40;1.00
573;DHT22;271;51.114;13.780;2023-05-09T12:54:19;18.40;1.00
573;DHT22;271;51.114;13.780;2023-05-09T12:57:20;18.60;1.00
573;DHT22;271;51.114;13.780;2023-05-09T13:00:12;18.60;1.00
573;DHT22;271;51.114;13.780;2023-05-09T13:03:03;18.80;1.00
573;DHT22;271;51.114;13.780;2023-05-09T13:05:58;19.00;1.00
573;DHT22;271;51.114;13.780;2023-05-09T13:08:56;18.80;1.00
573;DHT22;271;51.114;13.780;2023-05-09T13:11:45;18.90;1.00
573;DHT22;271;51.114;13.780;2023-05-09T13:14:35;18.90;1.00
573;DHT22;271;51.114;13.780;2023-05-09T13:17:23;18.90;1.00
573;DHT22;271;51.114;13.780;2023-05-09T13:20:12;19.10;1.00
573;DHT22;271;51.114;13.780;2023-05-09T13:23:00;19.00;1.00
573;DHT22;271;51.114;13.780;2023-05-09T13:25:48;18.90;1.00
573;DHT22;271;51.114;13.780;2023-05-09T13:28:36;19.00;1.00
573;DHT22;271;51.114;13.780;2023-05-09T13:31:25;18.90;1.00
573;DHT22;271;51.114;13.780;2023-05-09T13:34:12;18.80;1.00
573;DHT22;271;51.114;13.780;2023-05-09T13:37:01;18.60;1.00
573;DHT22;271;51.114;13.780;2023-05-09T13:39:49;18.70;1.00
573;DHT22;271;51.114;13.780;2023-05-09T13:42:38;18.80;1.00
573;DHT22;271;51.114;13.780;2023-05-09T13:45:26;18.70;1.00
573;DHT22;271;51.114;13.780;2023-05-09T13:48:15;18.70;1.00
573;DHT22;271;51.114;13.780;2023-05-09T13:51:02;18.70;1.00
573;DHT22;271;51.114;13.780;2023-05-09T13:53:53;18.60;1.00
573;DHT22;271;51.114;13.780;2023-05-09T13:56:41;18.50;1.00
573;DHT22;271;51.114;13.780;2023-05-09T13:59:30;18.60;1.00
573;DHT22;271;51.114;13.780;2023-05-09T14:02:18;18.60;1.00
573;DHT22;271;51.114;13.780;2023-05-09T14:05:06;18.80;1.00
573;DHT22;271;51.114;13.780;2023-05-09T14:07:54;18.70;1.00
573;DHT22;271;51.114;13.780;2023-05-09T14:10:44;18.60;1.00
573;DHT22;271;51.114;13.780;2023-05-09T14:13:33;18.50;1.00
573;DHT22;271;51.114;13.780;2023-05-09T14:16:21;18.60;1.00
573;DHT22;271;51.114;13.780;2023-05-09T14:19:08;18.60;1.00
573;DHT22;271;51.114;13.780;2023-05-09T14:21:56;18.60;1.00
573;DHT22;271;51.114;13.780;2023-05-09T14:24:44;18.60;1.00
573;DHT22;271;51.114;13.780;2023-05-09T14:27:33;18.60;1.00
573;DHT22;271;51.114;13.780;2023-05-09T14:30:22;18.50;1.00
573;DHT22;271;51.114;13.780;2023-05-09T14:33:11;18.50;1.00
573;DHT22;271;51.114;13.780;2023-05-09T14:35:59;18.50;1.00
573;DHT22;271;51.114;13.780;2023-05-09T14:38:48;18.50;1.00
573;DHT22;271;51.114;13.780;2023-05-09T14:41:36;18.60;1.00
573;DHT22;271;51.114;13.780;2023-05-09T14:44:25;18.60;1.00
573;DHT22;271;51.114;13.780;2023-05-09T14:47:13;18.60;1.00
573;DHT22;271;51.114;13.780;2023-05-09T14:50:02;18.60;1.00
573;DHT22;271;51.114;13.780;2023-05-09T14:52:50;18.50;1.00
573;DHT22;271;51.114;13.780;2023-05-09T14:55:38;18.60;1.00
573;DHT22;271;51.114;13.780;2023-05-09T14:58:26;18.70;1.00
573;DHT22;271;51.114;13.780;2023-05-09T15:01:17;18.70;1.00
573;DHT22;271;51.114;13.780;2023-05-09T15:04:06;18.60;1.00
573;DHT22;271;51.114;13.780;2023-05-09T15:06:54;18.60;1.00
573;DHT22;271;51.114;13.780;2023-05-09T15:09:42;18.60;1.00
573;DHT22;271;51.114;13.780;2023-05-09T15:12:30;18.60;1.00
573;DHT22;271;51.114;13.780;2023-05-09T15:15:20;18.60;1.00
573;DHT22;271;51.114;13.780;2023-05-09T15:18:09;18.50;1.00
573;DHT22;271;51.114;13.780;2023-05-09T15:20:58;18.50;1.00
573;DHT22;271;51.114;13.780;2023-05-09T15:23:46;18.50;1.00
573;DHT22;271;51.114;13.780;2023-05-09T15:26:34;18.50;1.00
573;DHT22;271;51.114;13.780;2023-05-09T15:29:22;18.50;1.00
573;DHT22;271;51.114;13.780;2023-05-09T15:32:10;18.50;1.00
573;DHT22;271;51.114;13.780;2023-05-09T15:34:59;18.50;1.00
573;DHT22;271;51.114;13.780;2023-05-09T15:37:49;18.50;1.00
573;DHT22;271;51.114;13.780;2023-05-09T15:40:37;18.40;1.00
573;DHT22;271;51.114;13.780;2023-05-09T15:43:26;18.40;1.00
573;DHT22;271;51.114;13.780;2023-05-09T15:46:14;18.40;1.00
573;DHT22;271;51.114;13.780;2023-05-09T15:49:02;18.40;1.00
573;DHT22;271;51.114;13.780;2023-05-09T15:51:53;18.40;1.00
573;DHT22;271;51.114;13.780;2023-05-09T15:54:44;18.40;1.00
573;DHT22;271;51.114;13.780;2023-05-09T15:57:31;18.40;1.00
573;DHT22;271;51.114;13.780;2023-05-09T16:00:19;18.40;1.00
573;DHT22;271;51.114;13.780;2023-05-09T16:03:07;18.40;1.00
573;DHT22;271;51.114;13.780;2023-05-09T16:05:55;18.40;1.00
573;DHT22;271;51.114;13.780;2023-05-09T16:08:45;18.40;1.00
573;DHT22;271;51.114;13.780;2023-05-09T16:11:33;18.40;1.00
573;DHT22;271;51.114;13.780;2023-05-09T16:14:21;18.40;1.00
573;DHT22;271;51.114;13.780;2023-05-09T16:17:09;18.30;1.00
573;DHT22;271;51.114;13.780;2023-05-09T16:19:57;18.30;1.00
573;DHT22;271;51.114;13.780;2023-05-09T16:22:45;18.30;1.00
573;DHT22;271;51.114;13.780;2023-05-09T16:25:34;18.20;1.00
573;DHT22;271;51.114;13.780;2023-05-09T16:28:22;18.20;1.00
573;DHT22;271;51.114;13.780;2023-05-09T16:31:10;18.20;1.00
573;DHT22;271;51.114;13.780;2023-05-09T16:33:57;18.20;1.00
573;DHT22;271;51.114;13.780;2023-05-09T16:36:45;18.30;1.00
573;DHT22;271;51.114;13.780;2023-05-09T16:39:33;18.20;1.00
573;DHT22;271;51.114;13.780;2023-05-09T16:42:23;18.20;1.00
573;DHT22;271;51.114;13.780;2023-05-09T16:45:10;18.10;1.00
573;DHT22;271;51.114;13.780;2023-05-09T16:47:58;18.10;1.00
573;DHT22;271;51.114;13.780;2023-05-09T16:50:46;18.00;1.00
573;DHT22;271;51.114;13.780;2023-05-09T16:53:38;18.00;1.00
573;DHT22;271;51.114;13.780;2023-05-09T16:56:26;18.00;1.00
573;DHT22;271;51.114;13.780;2023-05-09T16:59:16;18.00;1.00
573;DHT22;271;51.114;13.780;2023-05-09T17:02:05;18.00;1.00
573;DHT22;271;51.114;13.780;2023-05-09T17:04:53;17.90;1.00
573;DHT22;271;51.114;13.780;2023-05-09T17:07:40;17.90;1.00
573;DHT22;271;51.114;13.780;2023-05-09T17:10:31;17.90;1.00
573;DHT22;271;51.114;13.780;2023-05-09T17:13:19;17.80;1.00
573;DHT22;271;51.114;13.780;2023-05-09T17:16:11;17.80;1.00
573;DHT22;271;51.114;13.780;2023-05-09T17:18:59;17.70;1.00
573;DHT22;271;51.114;13.780;2023-05-09T17:21:50;17.70;1.00
573;DHT22;271;51.114;13.780;2023-05-09T17:24:38;17.70;1.00
573;DHT22;271;51.114;13.780;2023-05-09T17:27:26;17.70;1.00
573;DHT22;271;51.114;13.780;2023-05-09T17:30:13;17.60;1.00
573;DHT22;271;51.114;13.780;2023-05-09T17:33:03;17.50;1.00
573;DHT22;271;51.114;13.780;2023-05-09T17:35:50;17.50;1.00
573;DHT22;271;51.114;13.780;2023-05-09T17:38:41;17.40;1.00
573;DHT22;271;51.114;13.780;2023-05-09T17:41:29;17.40;1.00
573;DHT22;271;51.114;13.780;2023-05-09T17:44:21;17.40;1.00
573;DHT22;271;51.114;13.780;2023-05-09T17:47:09;17.40;1.00
573;DHT22;271;51.114;13.780;2023-05-09T17:50:02;17.30;1.00
573;DHT22;271;51.114;13.780;2023-05-09T17:52:50;17.20;1.00
573;DHT22;271;51.114;13.780;2023-05-09T17:55:38;17.20;1.00
573;DHT22;271;51.114;13.780;2023-05-09T17:58:25;17.10;1.00
573;DHT22;271;51.114;13.780;2023-05-09T18:01:13;17.00;1.00
573;DHT22;271;51.114;13.780;2023-05-09T18:04:01;17.00;1.00
573;DHT22;271;51.114;13.780;2023-05-09T18:06:53;16.90;1.00
573;DHT22;271;51.114;13.780;2023-05-09T18:09:41;16.80;1.00
573;DHT22;271;51.114;13.780;2023-05-09T18:12:29;16.80;1.00
573;DHT22;271;51.114;13.780;2023-05-09T18:15:19;16.70;1.00
573;DHT22;271;51.114;13.780;2023-05-09T18:18:09;16.70;1.00
573;DHT22;271;51.114;13.780;2023-05-09T18:20:57;16.60;1.00
573;DHT22;271;51.114;13.780;2023-05-09T18:23:46;16.50;1.00
573;DHT22;271;51.114;13.780;2023-05-09T18:26:34;16.40;1.00
573;DHT22;271;51.114;13.780;2023-05-09T18:29:22;16.30;1.00
573;DHT22;271;51.114;13.780;2023-05-09T18:32:10;16.30;1.00
573;DHT22;271;51.114;13.780;2023-05-09T18:34:59;16.30;1.00
573;DHT22;271;51.114;13.780;2023-05-09T18:37:46;16.20;1.00
573;DHT22;271;51.114;13.780;2023-05-09T18:40:36;16.20;1.00
573;DHT22;271;51.114;13.780;2023-05-09T18:43:23;16.20;1.00
573;DHT22;271;51.114;13.780;2023-05-09T18:46:12;16.10;1.00
573;DHT22;271;51.114;13.780;2023-05-09T18:49:02;16.10;1.00
573;DHT22;271;51.114;13.780;2023-05-09T18:51:50;16.00;1.00
573;DHT22;271;51.114;13.780;2023-05-09T18:54:38;16.00;1.00
573;DHT22;271;51.114;13.780;2023-05-09T18:57:27;15.90;1.00
573;DHT22;271;51.114;13.780;2023-05-09T19:00:16;15.80;1.00
573;DHT22;271;51.114;13.780;2023-05-09T19:03:04;15.80;1.00
573;DHT22;271;51.114;13.780;2023-05-09T19:05:52;15.70;1.00